Time;durP1;ratioP1;P1;durP2;ratioP2;P2;SDS_P1;SDS_P2;PMS_P1;PMS_P2;Temp;Humidity;BMP_temperature;BMP_pressure;BME280_temperature;BME280_humidity;BME280_pressure;Samples;Min_cycle;Max_cycle;Signal;HPM_P1;HPM_P2
2024/01/14 00:04:42;;;;;;;58.30;30.73;;;;;;;;;;12916817;22;21083;-86
2024/01/14 00:09:46;;;;;;;58.77;32.03;;;;;;;;;;12918872;22;20426;-85
2024/01/14 00:14:48;;;;;;;62.65;31.65;;;;;;;;;;12918273;22;20364;-85
2024/01/14 00:19:51;;;;;;;61.03;31.95;;;;;;;;;;12917437;22;20431;-86
2024/01/14 00:24:55;;;;;;;58.97;31.38;;;;;;;;;;12917745;22;20373;-86
2024/01/14 00:29:59;;;;;;;68.50;32.20;;;;;;;;;;12918021;22;20364;-86
2024/01/14 00:35:01;;;;;;;61.70;30.97;;;;;;;;;;12938752;23;20356;-83
2024/01/14 00:40:08;;;;;;;58.13;31.50;;;;;;;;;;12916251;22;20756;-86
2024/01/14 00:45:10;;;;;;;58.93;31.40;;;;;;;;;;12916884;22;20369;-86
2024/01/14 00:50:13;;;;;;;63.45;33.25;;;;;;;;;;12917595;22;20364;-86
2024/01/14 00:55:17;;;;;;;60.90;31.58;;;;;;;;;;12918335;22;20910;-86
2024/01/14 01:00:19;;;;;;;59.97;31.43;;;;;;;;;;12917176;23;20922;-86
2024/01/14 01:05:21;;;;;;;60.53;32.47;;;;;;;;;;12917070;23;20677;-86
2024/01/14 01:10:25;;;;;;;58.80;33.53;;;;;;;;;;12937414;23;20360;-85
2024/01/14 01:15:28;;;;;;;57.88;30.50;;;;;;;;;;12916448;22;20376;-86
2024/01/14 01:20:31;;;;;;;58.28;30.80;;;;;;;;;;12917010;22;20411;-86
2024/01/14 01:25:34;;;;;;;62.10;31.53;;;;;;;;;;12916755;22;20430;-86
2024/01/14 01:30:37;;;;;;;62.70;30.37;;;;;;;;;;12916858;22;20427;-87
2024/01/14 01:35:39;;;;;;;55.20;28.95;;;;;;;;;;12914959;22;20426;-85
2024/01/14 01:40:43;;;;;;;55.37;27.47;;;;;;;;;;12917695;22;20385;-86
2024/01/14 01:45:45;;;;;;;48.73;26.47;;;;;;;;;;12919819;22;20372;-86
2024/01/14 01:50:48;;;;;;;52.05;27.70;;;;;;;;;;12918896;22;20744;-86
2024/01/14 01:55:53;;;;;;;53.73;26.87;;;;;;;;;;12919165;22;20372;-86
2024/01/14 02:00:55;;;;;;;51.75;26.30;;;;;;;;;;12919750;22;20384;-86
2024/01/14 02:05:59;;;;;;;52.80;26.63;;;;;;;;;;12919001;22;20689;-86
2024/01/14 02:11:03;;;;;;;49.20;26.58;;;;;;;;;;12920225;22;20380;-86
2024/01/14 02:16:06;;;;;;;46.60;25.67;;;;;;;;;;12919391;22;20373;-85
2024/01/14 02:21:11;;;;;;;49.10;26.63;;;;;;;;;;12919332;22;20679;-86
2024/01/14 02:26:15;;;;;;;50.85;25.70;;;;;;;;;;12919222;22;20376;-86
2024/01/14 02:31:18;;;;;;;48.30;25.88;;;;;;;;;;12918736;22;20438;-86
2024/01/14 02:36:20;;;;;;;48.83;25.75;;;;;;;;;;12918796;22;20681;-85
2024/01/14 02:41:24;;;;;;;48.40;25.43;;;;;;;;;;12917082;22;20388;-86
2024/01/14 02:46:29;;;;;;;46.40;24.60;;;;;;;;;;12917731;22;20412;-84
2024/01/14 02:51:31;;;;;;;47.67;23.05;;;;;;;;;;12917603;22;20372;-85
2024/01/14 02:56:35;;;;;;;47.35;24.35;;;;;;;;;;12918949;22;20739;-85
2024/01/14 03:01:43;;;;;;;43.40;22.77;;;;;;;;;;12918647;22;20364;-85
2024/01/14 03:06:46;;;;;;;39.90;21.95;;;;;;;;;;12916661;22;20399;-86
2024/01/14 03:11:49;;;;;;;43.17;22.48;;;;;;;;;;12911962;22;20376;-86
2024/01/14 03:16:52;;;;;;;42.85;21.88;;;;;;;;;;12918426;23;20856;-85
2024/01/14 03:21:54;;;;;;;43.80;22.45;;;;;;;;;;12917293;22;20368;-87
2024/01/14 03:26:58;;;;;;;38.70;21.47;;;;;;;;;;12939063;23;20368;-84
2024/01/14 03:32:00;;;;;;;45.87;22.40;;;;;;;;;;12939108;23;20437;-85
2024/01/14 03:37:03;;;;;;;40.92;20.70;;;;;;;;;;12914301;22;20361;-85
2024/01/14 03:42:07;;;;;;;41.80;22.30;;;;;;;;;;12939170;23;20357;-86
2024/01/14 03:47:09;;;;;;;38.47;20.77;;;;;;;;;;12917284;22;20368;-85
2024/01/14 03:52:12;;;;;;;37.97;20.42;;;;;;;;;;12919556;22;20359;-86
2024/01/14 03:57:15;;;;;;;35.65;19.75;;;;;;;;;;12917445;22;20846;-86
2024/01/14 04:02:18;;;;;;;39.33;20.75;;;;;;;;;;12938134;23;21122;-86
2024/01/14 04:07:20;;;;;;;36.17;20.10;;;;;;;;;;12938042;23;20844;-86
2024/01/14 04:12:27;;;;;;;39.67;20.15;;;;;;;;;;12916954;22;20372;-86
2024/01/14 04:17:29;;;;;;;35.20;18.88;;;;;;;;;;12916369;22;20387;-85
2024/01/14 04:22:31;;;;;;;36.20;19.60;;;;;;;;;;12916365;22;20372;-86
2024/01/14 04:27:35;;;;;;;34.35;18.90;;;;;;;;;;12917500;22;20817;-86
2024/01/14 04:32:37;;;;;;;38.65;19.90;;;;;;;;;;12917545;22;20368;-86
2024/01/14 04:37:40;;;;;;;38.22;19.88;;;;;;;;;;12915777;22;20384;-85
2024/01/14 04:42:43;;;;;;;36.67;19.27;;;;;;;;;;12916709;22;20923;-85
2024/01/14 04:47:46;;;;;;;38.47;19.27;;;;;;;;;;12915894;22;20433;-85
2024/01/14 04:52:48;;;;;;;36.97;20.38;;;;;;;;;;12917397;22;20364;-86
2024/01/14 04:57:52;;;;;;;38.00;19.93;;;;;;;;;;12916771;23;20368;-85
2024/01/14 05:02:54;;;;;;;37.00;19.57;;;;;;;;;;12916490;22;20418;-86
2024/01/14 05:07:57;;;;;;;38.20;20.13;;;;;;;;;;12937718;23;20426;-86
2024/01/14 05:13:00;;;;;;;36.90;18.83;;;;;;;;;;12919765;22;20438;-86
2024/01/14 05:18:03;;;;;;;32.50;18.30;;;;;;;;;;12919865;22;20465;-86
2024/01/14 05:23:07;;;;;;;33.67;18.02;;;;;;;;;;12941199;23;20352;-87
2024/01/14 05:28:11;;;;;;;39.25;20.00;;;;;;;;;;12920413;22;20388;-85
2024/01/14 05:33:14;;;;;;;35.80;18.00;;;;;;;;;;12920460;22;20441;-86
2024/01/14 05:38:17;;;;;;;34.13;18.03;;;;;;;;;;12939438;23;20398;-86
2024/01/14 05:43:20;;;;;;;34.70;18.98;;;;;;;;;;12919735;22;20364;-86
2024/01/14 05:48:23;;;;;;;35.58;17.85;;;;;;;;;;12919874;22;20399;-86
2024/01/14 05:53:25;;;;;;;31.67;17.08;;;;;;;;;;12941361;23;20368;-86
2024/01/14 05:58:29;;;;;;;32.67;16.92;;;;;;;;;;12919518;22;20442;-86
2024/01/14 06:03:31;;;;;;;32.78;17.42;;;;;;;;;;12920192;22;20365;-86
2024/01/14 06:08:34;;;;;;;34.10;18.13;;;;;;;;;;12919929;22;20576;-86
2024/01/14 06:13:37;;;;;;;34.97;18.35;;;;;;;;;;12920918;22;20368;-86
2024/01/14 06:18:41;;;;;;;33.08;17.42;;;;;;;;;;12918911;22;20384;-86
2024/01/14 06:23:43;;;;;;;32.70;18.47;;;;;;;;;;12919168;22;20805;-86
2024/01/14 06:28:47;;;;;;;35.00;17.33;;;;;;;;;;12919724;22;20368;-86
2024/01/14 06:33:50;;;;;;;32.80;18.37;;;;;;;;;;12918926;22;20552;-86
2024/01/14 06:38:52;;;;;;;36.63;18.75;;;;;;;;;;12918304;23;20372;-86
2024/01/14 06:43:56;;;;;;;31.73;17.70;;;;;;;;;;12919651;22;20423;-86
2024/01/14 06:48:58;;;;;;;34.35;18.48;;;;;;;;;;12919765;22;20472;-86
2024/01/14 06:54:00;;;;;;;34.88;18.45;;;;;;;;;;12940827;23;20352;-84
2024/01/14 06:59:04;;;;;;;35.38;18.05;;;;;;;;;;12917956;22;20380;-86
2024/01/14 07:04:06;;;;;;;36.53;18.55;;;;;;;;;;12919600;22;20430;-86
2024/01/14 07:09:10;;;;;;;39.03;20.23;;;;;;;;;;12919211;22;20732;-85
2024/01/14 07:14:14;;;;;;;37.78;19.08;;;;;;;;;;12919158;22;20422;-86
2024/01/14 07:19:16;;;;;;;41.95;20.80;;;;;;;;;;12917473;22;20380;-87
2024/01/14 07:24:19;;;;;;;41.40;23.88;;;;;;;;;;12918677;22;20360;-86
2024/01/14 07:29:23;;;;;;;52.88;27.42;;;;;;;;;;12940286;23;20361;-86
2024/01/14 07:34:27;;;;;;;51.03;26.40;;;;;;;;;;12918718;22;20368;-87
2024/01/14 07:39:29;;;;;;;46.20;24.30;;;;;;;;;;12915852;22;20384;-86
2024/01/14 07:44:33;;;;;;;49.93;25.00;;;;;;;;;;12918406;22;20415;-86
2024/01/14 07:49:36;;;;;;;46.77;25.20;;;;;;;;;;12872008;23;20360;-85
2024/01/14 07:54:39;;;;;;;45.35;22.73;;;;;;;;;;12906634;22;20372;-84
2024/01/14 07:59:42;;;;;;;45.13;24.52;;;;;;;;;;12905227;22;20458;-84
2024/01/14 08:04:45;;;;;;;55.58;28.38;;;;;;;;;;12907425;22;20368;-85
2024/01/14 08:09:47;;;;;;;63.55;32.03;;;;;;;;;;12905649;22;20442;-86
2024/01/14 08:14:59;;;;;;;65.97;33.80;;;;;;;;;;12924414;23;20442;-85
2024/01/14 08:20:02;;;;;;;65.07;34.60;;;;;;;;;;12837590;23;20916;-81
2024/01/14 08:25:04;;;;;;;71.70;36.22;;;;;;;;;;12837394;23;21123;-81
2024/01/14 08:30:09;;;;;;;70.40;35.38;;;;;;;;;;12845461;23;20362;-81
2024/01/14 08:35:12;;;;;;;71.15;36.63;;;;;;;;;;12847517;23;20422;-80
2024/01/14 08:40:15;;;;;;;74.17;39.73;;;;;;;;;;12850441;23;20390;-81
2024/01/14 08:45:19;;;;;;;71.82;38.60;;;;;;;;;;12848568;23;20401;-81
2024/01/14 08:50:21;;;;;;;69.35;34.67;;;;;;;;;;12850115;23;20786;-82
2024/01/14 08:55:23;;;;;;;68.43;34.87;;;;;;;;;;12848000;23;20436;-82
2024/01/14 09:00:27;;;;;;;64.63;35.78;;;;;;;;;;12866325;23;20381;-83
2024/01/14 09:05:30;;;;;;;66.57;33.92;;;;;;;;;;12846078;23;20374;-82
2024/01/14 09:10:32;;;;;;;69.43;35.10;;;;;;;;;;12846556;23;20369;-83
2024/01/14 09:15:36;;;;;;;61.33;32.85;;;;;;;;;;12849429;23;20432;-83
2024/01/14 09:20:39;;;;;;;64.53;33.53;;;;;;;;;;12850297;23;20382;-81
2024/01/14 09:25:44;;;;;;;62.63;33.72;;;;;;;;;;12852390;23;20481;-82
2024/01/14 09:30:50;;;;;;;62.08;32.35;;;;;;;;;;12850193;23;20416;-84
2024/01/14 09:35:52;;;;;;;63.15;33.00;;;;;;;;;;12845696;23;20440;-81
2024/01/14 09:41:06;;;;;;;57.80;31.63;;;;;;;;;;12846340;23;20390;-83
2024/01/14 09:46:11;;;;;;;61.90;33.17;;;;;;;;;;12848861;23;20435;-82
2024/01/14 09:51:19;;;;;;;63.10;33.83;;;;;;;;;;12849618;23;21045;-84
2024/01/14 09:56:22;;;;;;;63.53;34.60;;;;;;;;;;12849934;23;20370;-82
2024/01/14 10:01:30;;;;;;;50.15;27.73;;;;;;;;;;12852276;23;20389;-80
2024/01/14 10:06:33;;;;;;;50.85;27.15;;;;;;;;;;12851040;23;21130;-82
2024/01/14 10:11:35;;;;;;;65.00;34.72;;;;;;;;;;12852995;23;20903;-83
2024/01/14 10:16:39;;;;;;;48.80;25.00;;;;;;;;;;12852416;23;20433;-82
2024/01/14 10:21:42;;;;;;;58.22;34.25;;;;;;;;;;12851447;23;20386;-82
2024/01/14 10:26:44;;;;;;;56.70;31.23;;;;;;;;;;12842879;22;20439;-82
2024/01/14 10:31:48;;;;;;;55.90;30.25;;;;;;;;;;12842438;22;20904;-82
2024/01/14 10:36:50;;;;;;;48.72;25.33;;;;;;;;;;12836443;22;20698;-81
2024/01/14 10:41:53;;;;;;;47.67;24.73;;;;;;;;;;12838802;22;20532;-81
2024/01/14 10:46:58;;;;;;;46.75;26.30;;;;;;;;;;12839428;23;20362;-79
2024/01/14 10:52:08;;;;;;;48.38;27.23;;;;;;;;;;12843266;22;20381;-81
2024/01/14 10:57:20;;;;;;;31.37;17.20;;;;;;;;;;12836683;23;20370;-79
2024/01/14 11:02:27;;;;;;;39.70;20.00;;;;;;;;;;12834577;23;20386;-81
2024/01/14 11:07:30;;;;;;;41.35;21.70;;;;;;;;;;12837364;23;20432;-80
2024/01/14 11:12:40;;;;;;;37.10;20.60;;;;;;;;;;12840931;23;20374;-80
2024/01/14 11:17:54;;;;;;;30.38;17.55;;;;;;;;;;12840567;23;20444;-87
2024/01/14 11:23:09;;;;;;;35.10;19.63;;;;;;;;;;12861580;23;20781;-83
2024/01/14 11:28:12;;;;;;;34.20;18.80;;;;;;;;;;12838988;23;20409;-82
2024/01/14 11:33:32;;;;;;;39.03;19.42;;;;;;;;;;12840020;23;20374;-83
2024/01/14 11:38:36;;;;;;;40.10;22.33;;;;;;;;;;12832747;23;20887;-83
2024/01/14 11:43:41;;;;;;;40.10;21.63;;;;;;;;;;12832519;22;20381;-84
2024/01/14 11:48:45;;;;;;;38.60;21.47;;;;;;;;;;12833972;22;20592;-80
2024/01/14 11:53:47;;;;;;;44.50;22.42;;;;;;;;;;12834719;22;20382;-83
2024/01/14 11:58:49;;;;;;;44.50;23.57;;;;;;;;;;12832997;22;20659;-83
2024/01/14 12:04:02;;;;;;;38.40;21.70;;;;;;;;;;12836525;22;20389;-83
2024/01/14 12:09:04;;;;;;;43.78;22.70;;;;;;;;;;12838365;22;20487;-83
2024/01/14 12:14:06;;;;;;;40.30;20.83;;;;;;;;;;12855220;22;20369;-82
2024/01/14 12:19:14;;;;;;;43.70;23.25;;;;;;;;;;12834963;23;20409;-82
2024/01/14 12:24:16;;;;;;;33.88;20.27;;;;;;;;;;12838343;23;20385;-83
2024/01/14 12:29:18;;;;;;;42.17;21.60;;;;;;;;;;12835486;22;20467;-83
2024/01/14 12:34:23;;;;;;;35.38;20.42;;;;;;;;;;12835689;22;20415;-84
2024/01/14 12:39:26;;;;;;;38.55;21.05;;;;;;;;;;12835380;22;20444;-84
2024/01/14 12:44:32;;;;;;;38.20;20.67;;;;;;;;;;12844940;22;20374;-84
2024/01/14 12:49:40;;;;;;;37.20;21.07;;;;;;;;;;12833567;22;20400;-85
2024/01/14 12:54:48;;;;;;;39.53;21.35;;;;;;;;;;12847526;22;20403;-82
2024/01/14 12:59:54;;;;;;;37.80;22.00;;;;;;;;;;12831448;22;20490;-83
2024/01/14 13:05:01;;;;;;;38.05;21.27;;;;;;;;;;12832887;22;20488;-82
2024/01/14 13:10:03;;;;;;;40.23;22.23;;;;;;;;;;12833590;22;20410;-83
2024/01/14 13:15:06;;;;;;;42.75;23.60;;;;;;;;;;12834869;22;20426;-82
2024/01/14 13:20:11;;;;;;;41.38;22.30;;;;;;;;;;12837883;23;20414;-82
2024/01/14 13:25:14;;;;;;;37.03;22.20;;;;;;;;;;12842144;23;20395;-82
2024/01/14 13:30:16;;;;;;;41.47;23.02;;;;;;;;;;12844718;23;20365;-84
2024/01/14 13:35:20;;;;;;;41.63;23.37;;;;;;;;;;12848110;23;20858;-82
2024/01/14 13:40:22;;;;;;;42.97;23.15;;;;;;;;;;12871519;23;20406;-82
2024/01/14 13:45:24;;;;;;;42.30;23.30;;;;;;;;;;12853676;23;20405;-84
2024/01/14 13:50:28;;;;;;;43.20;23.80;;;;;;;;;;12852385;23;20399;-84
2024/01/14 13:55:30;;;;;;;44.00;24.20;;;;;;;;;;12852890;23;20707;-81
2024/01/14 14:00:33;;;;;;;51.70;25.37;;;;;;;;;;12853375;23;20416;-84
2024/01/14 14:05:37;;;;;;;51.53;25.97;;;;;;;;;;12852306;23;20697;-82
2024/01/14 14:10:41;;;;;;;43.60;23.77;;;;;;;;;;12849992;23;20383;-84
2024/01/14 14:15:43;;;;;;;49.60;26.05;;;;;;;;;;12850048;23;20374;-84
2024/01/14 14:20:47;;;;;;;50.13;27.25;;;;;;;;;;12852839;23;20381;-84
2024/01/14 14:25:52;;;;;;;56.97;29.45;;;;;;;;;;12852016;23;20382;-84
2024/01/14 14:30:57;;;;;;;62.10;31.02;;;;;;;;;;12848833;23;20377;-83
2024/01/14 14:36:01;;;;;;;52.22;27.80;;;;;;;;;;12848154;23;20436;-83
2024/01/14 14:41:04;;;;;;;53.90;29.52;;;;;;;;;;12840257;22;20455;-83
2024/01/14 14:51:34;;;;;;;59.88;31.48;;;;;;;;;;12833831;22;20439;-83
2024/01/14 14:56:37;;;;;;;61.95;31.60;;;;;;;;;;12838044;22;20416;-83
2024/01/14 15:01:39;;;;;;;60.63;32.43;;;;;;;;;;12835731;22;20424;-83
2024/01/14 15:06:43;;;;;;;60.50;32.15;;;;;;;;;;12836474;22;20904;-84
2024/01/14 15:11:45;;;;;;;95.70;42.63;;;;;;;;;;12836419;22;20407;-82
2024/01/14 15:16:48;;;;;;;96.70;44.20;;;;;;;;;;12852528;22;20374;-81
2024/01/14 15:21:51;;;;;;;73.23;36.60;;;;;;;;;;12834775;22;20931;-82
2024/01/14 15:26:54;;;;;;;75.53;35.93;;;;;;;;;;12837636;23;20461;-82
2024/01/14 15:31:56;;;;;;;124.75;54.65;;;;;;;;;;12836798;22;20440;-82
2024/01/14 15:37:00;;;;;;;81.85;42.17;;;;;;;;;;12836175;22;20390;-83
2024/01/14 15:42:03;;;;;;;56.63;31.23;;;;;;;;;;12835490;22;20403;-84
2024/01/14 15:47:06;;;;;;;69.18;34.03;;;;;;;;;;12836459;22;20929;-81
2024/01/14 15:52:10;;;;;;;60.40;30.90;;;;;;;;;;12831068;22;20437;-84
2024/01/14 15:57:19;;;;;;;63.05;31.88;;;;;;;;;;12832082;22;20385;-81
2024/01/14 16:02:27;;;;;;;70.28;35.35;;;;;;;;;;12832023;22;25064;-83
2024/01/14 16:07:38;;;;;;;65.30;34.55;;;;;;;;;;12834298;22;20394;-86
2024/01/14 16:12:41;;;;;;;65.20;33.72;;;;;;;;;;12833166;22;25061;-85
2024/01/14 16:17:51;;;;;;;67.28;34.95;;;;;;;;;;12848670;22;20436;-85
2024/01/14 16:22:54;;;;;;;67.87;35.10;;;;;;;;;;12833045;22;22903;-85
2024/01/14 16:27:56;;;;;;;72.30;35.80;;;;;;;;;;12834312;22;20444;-84
2024/01/14 16:32:59;;;;;;;79.90;40.92;;;;;;;;;;12851798;23;20365;-85
2024/01/14 16:38:03;;;;;;;83.00;42.60;;;;;;;;;;12829419;22;20382;-86
2024/01/14 16:43:05;;;;;;;74.18;38.42;;;;;;;;;;12831474;22;20444;-84
2024/01/14 16:48:09;;;;;;;70.35;36.50;;;;;;;;;;12829258;22;20377;-84
2024/01/14 16:53:14;;;;;;;64.38;33.80;;;;;;;;;;12831907;22;20390;-85
2024/01/14 16:58:16;;;;;;;68.03;35.88;;;;;;;;;;12830725;22;20732;-85
2024/01/14 17:03:19;;;;;;;67.22;35.45;;;;;;;;;;12830532;22;20463;-85
2024/01/14 17:08:23;;;;;;;67.77;35.30;;;;;;;;;;12832579;22;20439;-84
2024/01/14 17:13:25;;;;;;;73.15;38.17;;;;;;;;;;12828026;22;20390;-85
2024/01/14 17:18:28;;;;;;;82.60;42.23;;;;;;;;;;12827899;22;20419;-84
2024/01/14 17:23:32;;;;;;;92.15;46.63;;;;;;;;;;12834975;22;20701;-83
2024/01/14 17:28:37;;;;;;;83.80;43.30;;;;;;;;;;12849658;22;20435;-84
2024/01/14 17:33:40;;;;;;;79.15;41.50;;;;;;;;;;12833474;23;20702;-84
2024/01/14 17:38:46;;;;;;;85.23;43.00;;;;;;;;;;12836076;22;20373;-83
2024/01/14 17:43:49;;;;;;;101.53;50.30;;;;;;;;;;12834859;22;20476;-84
2024/01/14 17:48:52;;;;;;;91.90;46.28;;;;;;;;;;12833731;22;20484;-84
2024/01/14 17:53:57;;;;;;;83.78;44.00;;;;;;;;;;12864673;23;20366;-84
2024/01/14 17:59:00;;;;;;;78.80;43.05;;;;;;;;;;12864346;23;20936;-83
2024/01/14 18:04:03;;;;;;;85.47;43.40;;;;;;;;;;12839729;23;20382;-84
2024/01/14 18:09:07;;;;;;;90.10;44.17;;;;;;;;;;12842044;23;20842;-84
2024/01/14 18:14:09;;;;;;;81.30;44.57;;;;;;;;;;12839525;23;20374;-84
2024/01/14 18:19:11;;;;;;;84.65;43.78;;;;;;;;;;12847430;23;20439;-81
2024/01/14 18:24:15;;;;;;;78.10;42.70;;;;;;;;;;12847152;23;20390;-83
2024/01/14 18:29:18;;;;;;;88.18;46.15;;;;;;;;;;12848687;23;20444;-83
2024/01/14 18:34:21;;;;;;;104.70;57.55;;;;;;;;;;12850280;23;20420;-84
2024/01/14 18:39:25;;;;;;;97.85;48.90;;;;;;;;;;12851002;23;20408;-84
2024/01/14 18:44:28;;;;;;;89.15;46.80;;;;;;;;;;12850344;23;20460;-83
2024/01/14 18:49:33;;;;;;;92.57;48.90;;;;;;;;;;12852114;23;20362;-82
2024/01/14 18:54:37;;;;;;;100.40;50.75;;;;;;;;;;12852370;23;20478;-83
2024/01/14 18:59:39;;;;;;;130.45;66.25;;;;;;;;;;12852192;23;20742;-83
2024/01/14 19:04:42;;;;;;;88.20;47.92;;;;;;;;;;12852405;23;20931;-82
2024/01/14 19:09:45;;;;;;;89.23;47.87;;;;;;;;;;12852381;23;20473;-82
2024/01/14 19:14:48;;;;;;;89.23;46.97;;;;;;;;;;12850878;23;20851;-82
2024/01/14 19:19:50;;;;;;;87.70;46.50;;;;;;;;;;12852097;23;20424;-82
2024/01/14 19:24:54;;;;;;;86.13;46.67;;;;;;;;;;12851249;23;20483;-82
2024/01/14 19:29:59;;;;;;;86.47;46.07;;;;;;;;;;12852232;23;20428;-82
2024/01/14 19:35:01;;;;;;;93.33;47.53;;;;;;;;;;12851933;23;20362;-82
2024/01/14 19:40:07;;;;;;;91.22;48.97;;;;;;;;;;12850595;23;20374;-82
2024/01/14 19:45:10;;;;;;;98.18;51.35;;;;;;;;;;12852287;23;20496;-81
2024/01/14 19:50:12;;;;;;;98.15;52.05;;;;;;;;;;12847966;23;20369;-82
2024/01/14 19:55:16;;;;;;;99.40;51.20;;;;;;;;;;12850700;23;20695;-82
2024/01/14 20:00:21;;;;;;;115.43;57.73;;;;;;;;;;12851606;23;20370;-82
2024/01/14 20:05:23;;;;;;;117.20;61.17;;;;;;;;;;12851558;23;20386;-82
2024/01/14 20:10:27;;;;;;;138.40;66.63;;;;;;;;;;12851361;23;20424;-83
2024/01/14 20:15:29;;;;;;;125.75;61.17;;;;;;;;;;12850717;23;20373;-82
2024/01/14 20:20:32;;;;;;;99.00;51.43;;;;;;;;;;12850920;23;20425;-82
2024/01/14 20:25:36;;;;;;;91.00;47.07;;;;;;;;;;12850348;23;20386;-82
2024/01/14 20:30:38;;;;;;;93.40;47.28;;;;;;;;;;12850511;23;20374;-82
2024/01/14 20:35:41;;;;;;;96.37;49.77;;;;;;;;;;12851373;23;20408;-82
2024/01/14 20:40:46;;;;;;;96.70;48.80;;;;;;;;;;12849026;23;20427;-82
2024/01/14 20:45:48;;;;;;;99.77;49.67;;;;;;;;;;12849406;23;20386;-83
2024/01/14 20:50:53;;;;;;;94.50;48.50;;;;;;;;;;12850563;23;20385;-82
2024/01/14 20:55:56;;;;;;;94.03;47.72;;;;;;;;;;12851245;23;20366;-82
2024/01/14 21:01:01;;;;;;;94.70;48.28;;;;;;;;;;12850105;23;20417;-82
2024/01/14 21:06:07;;;;;;;98.97;50.42;;;;;;;;;;12851116;23;20386;-82
2024/01/14 21:11:13;;;;;;;101.43;51.28;;;;;;;;;;12850563;23;20424;-82
2024/01/14 21:16:15;;;;;;;104.77;51.97;;;;;;;;;;12851115;23;20472;-81
2024/01/14 21:21:23;;;;;;;111.10;56.65;;;;;;;;;;12848767;23;20911;-81
2024/01/14 21:26:30;;;;;;;119.77;61.43;;;;;;;;;;12850676;23;20471;-82
2024/01/14 21:31:32;;;;;;;121.97;62.42;;;;;;;;;;12850092;23;20366;-82
2024/01/14 21:36:34;;;;;;;119.65;60.72;;;;;;;;;;12849618;23;20366;-81
2024/01/14 21:41:38;;;;;;;112.30;57.77;;;;;;;;;;12850520;23;20373;-82
2024/01/14 21:46:41;;;;;;;101.40;54.20;;;;;;;;;;12849206;23;20750;-81
2024/01/14 21:51:43;;;;;;;107.80;53.05;;;;;;;;;;12850368;23;20923;-81
2024/01/14 21:56:47;;;;;;;105.20;52.85;;;;;;;;;;12852442;23;20443;-82
2024/01/14 22:01:49;;;;;;;108.65;53.42;;;;;;;;;;12853089;23;20687;-81
2024/01/14 22:06:51;;;;;;;119.43;58.03;;;;;;;;;;12853445;23;20393;-81
2024/01/14 22:11:55;;;;;;;122.85;56.60;;;;;;;;;;12852150;23;20455;-82
2024/01/14 22:16:58;;;;;;;107.23;54.80;;;;;;;;;;12852697;23;20378;-81
2024/01/14 22:22:00;;;;;;;111.97;55.53;;;;;;;;;;12853482;23;20753;-82
2024/01/14 22:27:04;;;;;;;115.73;56.20;;;;;;;;;;12851824;23;20490;-82
2024/01/14 22:32:06;;;;;;;107.03;54.17;;;;;;;;;;12852716;23;20428;-82
2024/01/14 22:37:11;;;;;;;106.65;52.70;;;;;;;;;;12848403;23;20370;-83
2024/01/14 22:42:15;;;;;;;102.45;52.92;;;;;;;;;;12848798;23;20374;-83
2024/01/14 22:47:19;;;;;;;107.90;53.72;;;;;;;;;;12849030;23;20457;-83
2024/01/14 22:52:21;;;;;;;97.25;51.20;;;;;;;;;;12846716;23;20366;-83
2024/01/14 22:57:25;;;;;;;99.47;50.33;;;;;;;;;;12847455;23;20428;-83
2024/01/14 23:02:36;;;;;;;96.90;48.47;;;;;;;;;;12845607;23;20425;-83
2024/01/14 23:07:39;;;;;;;94.30;47.50;;;;;;;;;;12848687;23;20370;-83
2024/01/14 23:12:42;;;;;;;85.87;45.00;;;;;;;;;;12866408;23;20370;-83
2024/01/14 23:17:45;;;;;;;89.90;44.70;;;;;;;;;;12847869;23;20428;-83
2024/01/14 23:22:47;;;;;;;86.13;44.20;;;;;;;;;;12843891;23;20370;-83
2024/01/14 23:27:51;;;;;;;85.00;43.47;;;;;;;;;;12847721;23;20421;-84
2024/01/14 23:32:53;;;;;;;86.77;44.67;;;;;;;;;;12849490;23;20436;-84
2024/01/14 23:37:55;;;;;;;87.35;43.92;;;;;;;;;;12850437;23;20436;-84
2024/01/14 23:42:59;;;;;;;77.65;43.72;;;;;;;;;;12851674;23;20407;-84
2024/01/14 23:48:01;;;;;;;82.47;42.95;;;;;;;;;;12851850;23;20362;-84
2024/01/14 23:53:04;;;;;;;81.60;43.10;;;;;;;;;;12844062;23;20440;-83
2024/01/14 23:58:10;;;;;;;80.18;43.17;;;;;;;;;;12845398;23;20940;-83
